createdAt,value
2019-02-09T00:00:07.274Z,86.40
2019-02-09T00:02:45.660Z,86.38
2019-02-09T00:05:21.246Z,86.36
2019-02-09T00:07:52.291Z,86.37
2019-02-09T00:10:31.477Z,86.36
2019-02-09T00:13:06.779Z,86.35
2019-02-09T00:15:38.838Z,86.34
2019-02-09T00:18:12.202Z,86.35
2019-02-09T00:20:45.162Z,86.36
2019-02-09T00:23:19.673Z,86.33
2019-02-09T00:25:54.226Z,86.13
2019-02-09T00:28:26.542Z,86.13
2019-02-09T00:30:57.472Z,86.32
2019-02-09T00:33:30.339Z,86.28
2019-02-09T00:36:01.255Z,86.28
2019-02-09T00:38:31.977Z,86.33
2019-02-09T00:41:20.431Z,86.36
2019-02-09T00:43:54.333Z,86.35
2019-02-09T00:46:32.587Z,86.34
2019-02-09T00:49:03.691Z,86.34
2019-02-09T00:51:34.515Z,86.34
2019-02-09T00:54:07.696Z,86.34
2019-02-09T00:56:41.537Z,86.33
2019-02-09T00:59:18.308Z,86.33
2019-02-09T01:01:53.462Z,86.35
2019-02-09T01:04:26.693Z,86.34
2019-02-09T01:06:57.548Z,86.35
2019-02-09T01:09:28.012Z,86.52
2019-02-09T01:11:58.557Z,86.52
2019-02-09T01:14:28.886Z,86.35
2019-02-09T01:17:00.280Z,86.35
2019-02-09T01:19:30.976Z,86.34
2019-02-09T01:22:01.320Z,86.36
2019-02-09T01:24:31.839Z,86.36
2019-02-09T01:27:03.453Z,86.35
2019-02-09T01:29:38.748Z,86.35
2019-02-09T01:32:09.779Z,86.35
2019-02-09T01:34:40.335Z,86.35
2019-02-09T01:37:11.487Z,86.36
2019-02-09T01:39:47.307Z,86.35
2019-02-09T01:42:14.716Z,86.35
2019-02-09T01:44:45.150Z,86.38
2019-02-09T01:47:17.160Z,86.36
2019-02-09T01:49:48.034Z,86.36
2019-02-09T01:52:18.836Z,86.36
2019-02-09T01:54:50.865Z,86.36
2019-02-09T01:57:23.199Z,86.37
2019-02-09T01:59:54.168Z,86.37
2019-02-09T02:02:43.770Z,86.37
2019-02-09T02:05:15.706Z,86.38
2019-02-09T02:07:48.236Z,86.36
2019-02-09T02:10:27.470Z,86.36
2019-02-09T02:13:00.034Z,86.38
2019-02-09T02:15:31.368Z,86.38
2019-02-09T02:18:04.324Z,86.38
2019-02-09T02:20:34.904Z,86.37
2019-02-09T02:23:06.860Z,86.38
2019-02-09T02:25:38.757Z,86.40
2019-02-09T02:28:09.133Z,86.39
2019-02-09T02:30:40.042Z,86.38
2019-02-09T02:33:10.912Z,86.38
2019-02-09T02:35:41.337Z,86.38
2019-02-09T02:38:11.831Z,86.39
2019-02-09T02:40:42.391Z,86.42
2019-02-09T02:43:18.174Z,86.40
2019-02-09T02:45:48.733Z,86.41
2019-02-09T02:48:20.936Z,86.41
2019-02-09T02:50:54.190Z,86.41
2019-02-09T02:53:24.659Z,86.40
2019-02-09T02:55:57.373Z,86.40
2019-02-09T02:58:30.832Z,86.41
2019-02-09T03:01:00.985Z,86.42
2019-02-09T03:03:32.585Z,86.40
2019-02-09T03:06:03.327Z,86.43
2019-02-09T03:08:35.554Z,86.42
2019-02-09T03:11:09.554Z,86.42
2019-02-09T03:13:40.280Z,86.44
2019-02-09T03:16:16.959Z,86.42
2019-02-09T03:18:47.476Z,86.42
2019-02-09T03:21:18.967Z,86.44
2019-02-09T03:23:53.879Z,86.42
2019-02-09T03:26:23.594Z,86.45
2019-02-09T03:28:57.659Z,86.45
2019-02-09T03:31:35.979Z,86.44
2019-02-09T03:34:06.805Z,86.56
2019-02-09T03:36:38.756Z,86.56
2019-02-09T03:39:10.265Z,86.47
2019-02-09T03:41:40.792Z,86.47
2019-02-09T03:44:12.722Z,86.47
2019-02-09T03:46:46.010Z,86.47
2019-02-09T03:49:16.746Z,86.46
2019-02-09T03:51:50.734Z,86.48
2019-02-09T03:54:20.802Z,86.49
2019-02-09T03:56:52.121Z,86.49
2019-02-09T03:59:25.869Z,86.50
2019-02-09T04:01:58.291Z,86.52
2019-02-09T04:04:30.783Z,86.50
2019-02-09T04:07:03.739Z,86.52
2019-02-09T04:09:34.943Z,86.52
2019-02-09T04:12:08.292Z,86.54
2019-02-09T04:14:39.227Z,86.55
2019-02-09T04:17:09.801Z,86.53
2019-02-09T04:19:45.030Z,86.76
2019-02-09T04:22:15.544Z,86.76
2019-02-09T04:24:56.869Z,86.54
2019-02-09T04:27:28.520Z,86.56
2019-02-09T04:29:59.376Z,86.56
2019-02-09T04:32:30.235Z,86.56
2019-02-09T04:35:02.246Z,86.57
2019-02-09T04:37:34.960Z,86.58
2019-02-09T04:40:07.941Z,86.50
2019-02-09T04:42:39.771Z,86.50
2019-02-09T04:45:13.024Z,86.59
2019-02-09T04:47:43.995Z,86.61
2019-02-09T04:50:15.584Z,86.66
2019-02-09T04:52:49.491Z,86.60
2019-02-09T04:55:21.929Z,86.60
2019-02-09T04:57:52.929Z,86.60
2019-02-09T05:00:30.340Z,86.62
2019-02-09T05:03:05.496Z,86.62
2019-02-09T05:05:36.571Z,86.62
2019-02-09T05:08:11.708Z,86.33
2019-02-09T05:10:46.177Z,86.33
2019-02-09T05:13:18.402Z,86.63
2019-02-09T05:15:49.405Z,86.64
2019-02-09T05:18:20.110Z,86.63
2019-02-09T05:20:50.652Z,86.66
2019-02-09T05:23:21.612Z,86.66
2019-02-09T05:25:56.215Z,86.66
2019-02-09T05:28:26.929Z,86.65
2019-02-09T05:30:57.697Z,86.66
2019-02-09T05:33:30.804Z,86.69
2019-02-09T05:36:01.547Z,86.75
2019-02-09T05:38:32.265Z,86.75
2019-02-09T05:41:02.994Z,86.66
2019-02-09T05:43:33.611Z,86.69
2019-02-09T05:46:05.018Z,86.70
2019-02-09T05:48:35.867Z,86.69
2019-02-09T05:51:07.368Z,86.70
2019-02-09T05:53:39.967Z,86.70
2019-02-09T05:56:10.373Z,86.70
2019-02-09T05:58:44.886Z,86.71
2019-02-09T06:01:16.634Z,86.58
2019-02-09T06:03:47.270Z,86.54
2019-02-09T06:06:20.848Z,86.54
2019-02-09T06:08:51.426Z,86.73
2019-02-09T06:11:24.624Z,86.74
2019-02-09T06:13:55.621Z,86.74
2019-02-09T06:16:26.869Z,86.75
2019-02-09T06:18:58.757Z,86.58
2019-02-09T06:21:33.242Z,86.64
2019-02-09T06:24:09.275Z,86.64
2019-02-09T06:26:44.025Z,86.76
2019-02-09T06:29:14.961Z,86.76
2019-02-09T06:31:45.810Z,86.76
2019-02-09T06:34:16.806Z,86.76
2019-02-09T06:37:00.427Z,86.78
2019-02-09T06:39:31.179Z,86.79
2019-02-09T06:42:03.514Z,86.79
2019-02-09T06:44:37.089Z,86.79
2019-02-09T06:47:19.401Z,86.79
2019-02-09T06:49:55.185Z,86.80
2019-02-09T06:52:44.063Z,86.82
2019-02-09T06:55:25.892Z,86.73
2019-02-09T06:57:56.868Z,86.73
2019-02-09T07:00:31.050Z,86.69
2019-02-09T07:03:03.049Z,86.85
2019-02-09T07:05:40.319Z,86.83
2019-02-09T07:08:12.973Z,86.92
2019-02-09T07:10:45.968Z,86.92
2019-02-09T07:13:25.427Z,86.74
2019-02-09T07:15:56.381Z,86.74
2019-02-09T07:18:27.730Z,86.87
2019-02-09T07:21:04.216Z,86.86
2019-02-09T07:23:35.185Z,86.86
2019-02-09T07:26:07.996Z,86.93
2019-02-09T07:28:45.837Z,86.93
2019-02-09T07:31:28.138Z,86.89
2019-02-09T07:34:00.483Z,86.88
2019-02-09T07:36:41.490Z,86.91
2019-02-09T07:39:14.578Z,86.83
2019-02-09T07:41:47.130Z,86.83
2019-02-09T07:44:29.016Z,86.90
2019-02-09T07:46:56.764Z,86.92
2019-02-09T07:49:33.436Z,86.90
2019-02-09T07:52:06.894Z,86.94
2019-02-09T07:54:39.814Z,86.94
2019-02-09T07:57:16.009Z,86.94
2019-02-09T07:59:46.875Z,86.96
2019-02-09T08:02:17.608Z,86.96
2019-02-09T08:04:59.216Z,86.95
2019-02-09T08:07:37.514Z,86.95
2019-02-09T08:10:36.162Z,86.96
2019-02-09T08:13:08.928Z,86.96
2019-02-09T08:15:46.199Z,86.96
2019-02-09T08:18:42.758Z,86.97
2019-02-09T08:21:20.779Z,86.99
2019-02-09T08:23:52.982Z,86.99
2019-02-09T08:26:36.059Z,87.00
2019-02-09T08:29:19.177Z,86.99
2019-02-09T08:31:44.594Z,87.01
2019-02-09T08:34:20.465Z,87.00
2019-02-09T08:36:56.060Z,87.03
2019-02-09T08:39:31.607Z,87.02
2019-02-09T08:42:11.400Z,87.02
2019-02-09T08:44:45.853Z,87.02
2019-02-09T08:47:47.325Z,87.02
2019-02-09T08:50:10.798Z,87.17
2019-02-09T08:53:33.019Z,87.04
2019-02-09T08:55:54.409Z,87.05
2019-02-09T08:58:52.424Z,87.06
2019-02-09T09:01:55.132Z,87.06
2019-02-09T09:10:55.983Z,87.09
2019-02-09T09:13:34.592Z,87.09
2019-02-09T09:16:12.710Z,87.10
2019-02-09T09:18:53.990Z,87.09
2019-02-09T09:21:43.771Z,87.09
2019-02-09T09:24:11.817Z,87.11
2019-02-09T09:26:48.060Z,87.11
2019-02-09T09:29:41.229Z,87.13
2019-02-09T09:32:12.717Z,87.13
2019-02-09T09:34:41.823Z,87.13
2019-02-09T09:37:20.629Z,87.14
2019-02-09T09:39:56.610Z,87.15
2019-02-09T09:42:31.176Z,87.17
2019-02-09T09:45:09.227Z,87.16
2019-02-09T09:47:48.240Z,87.26
2019-02-09T09:50:22.759Z,87.26
2019-02-09T09:52:57.092Z,87.17
2019-02-09T09:55:31.521Z,87.18
2019-02-09T09:58:07.255Z,87.21
2019-02-09T10:00:43.482Z,87.20
2019-02-09T10:03:14.121Z,87.21
2019-02-09T10:05:50.236Z,87.22
2019-02-09T10:08:28.346Z,87.21
2019-02-09T10:11:08.746Z,87.17
2019-02-09T10:13:41.841Z,87.17
2019-02-09T10:16:19.841Z,87.24
2019-02-09T10:18:55.269Z,87.25
2019-02-09T10:22:16.828Z,87.23
2019-02-09T10:24:04.742Z,87.23
2019-02-09T10:26:42.394Z,87.25
2019-02-09T10:29:16.222Z,87.27
2019-02-09T10:31:58.821Z,87.26
2019-02-09T10:34:35.471Z,87.26
2019-02-09T10:37:32.287Z,87.26
2019-02-09T10:39:49.277Z,87.31
2019-02-09T10:42:27.818Z,87.31
2019-02-09T10:45:04.427Z,87.28
2019-02-09T10:47:54.715Z,87.30
2019-02-09T10:50:56.649Z,87.29
2019-02-09T10:53:35.446Z,87.30
2019-02-09T10:56:14.755Z,87.32
2019-02-09T10:58:50.464Z,87.27
2019-02-09T11:01:39.159Z,87.27
2019-02-09T11:04:34.568Z,87.32
2019-02-09T11:07:27.451Z,87.35
2019-02-09T11:10:29.297Z,87.35
2019-02-09T11:13:06.211Z,87.22
2019-02-09T11:16:05.739Z,87.18
2019-02-09T11:18:41.670Z,87.18
2019-02-09T11:21:14.691Z,87.35
2019-02-09T11:23:53.053Z,87.38
2019-02-09T11:26:24.111Z,87.38
2019-02-09T11:29:13.488Z,87.39
2019-02-09T11:31:52.911Z,87.38
2019-02-09T11:35:06.990Z,87.38
2019-02-09T11:37:47.116Z,87.38
2019-02-09T11:40:53.499Z,87.38
2019-02-09T11:44:28.884Z,87.39
2019-02-09T11:50:12.910Z,87.37
2019-02-09T11:55:23.539Z,87.50
2019-02-09T11:57:57.931Z,87.50
2019-02-09T12:00:40.566Z,87.40
2019-02-09T12:03:26.120Z,87.41
2019-02-09T12:06:15.082Z,87.41
2019-02-09T12:08:53.906Z,87.41
2019-02-09T12:11:43.632Z,87.42
2019-02-09T12:14:53.329Z,87.41
2019-02-09T12:21:56.061Z,87.41
2019-02-09T12:24:54.008Z,87.42
2019-02-09T12:34:29.349Z,87.43
2019-02-09T12:54:37.653Z,87.44
2019-02-09T13:21:33.589Z,87.47
2019-02-09T13:24:11.206Z,87.48
2019-02-09T13:26:53.157Z,87.48
2019-02-09T13:29:45.104Z,87.48
2019-02-09T13:32:24.011Z,87.47
2019-02-09T13:35:06.243Z,87.46
2019-02-09T13:37:40.931Z,87.46
2019-02-09T13:40:34.820Z,87.47
2019-02-09T13:43:18.986Z,87.47
2019-02-09T13:46:35.738Z,87.46
2019-02-09T14:02:39.785Z,87.52
2019-02-09T14:05:17.763Z,87.50
2019-02-09T14:08:16.034Z,87.51
2019-02-09T14:15:01.583Z,87.50
2019-02-09T14:32:33.865Z,87.51
2019-02-09T14:38:14.836Z,87.51
2019-02-09T14:40:56.438Z,87.52
2019-02-09T14:44:18.170Z,87.53
2019-02-09T14:47:45.882Z,87.53
2019-02-09T14:50:45.196Z,87.49
2019-02-09T14:56:18.428Z,87.51
2019-02-09T14:59:37.718Z,87.53
2019-02-09T15:09:55.704Z,87.52
2019-02-09T15:16:50.703Z,87.53
2019-02-09T15:21:16.019Z,87.53
2019-02-09T15:44:18.363Z,87.56
2019-02-09T16:01:55.220Z,87.55
2019-02-09T16:08:19.791Z,87.57
2019-02-09T16:14:23.817Z,87.55
2019-02-09T16:16:56.163Z,87.57
2019-02-09T16:24:15.113Z,87.57
2019-02-09T16:35:56.356Z,87.57
2019-02-09T16:38:56.438Z,87.61
2019-02-09T16:46:19.812Z,87.61
2019-02-09T16:52:34.549Z,87.58
2019-02-09T16:59:04.161Z,87.62
2019-02-09T17:05:01.078Z,87.62
2019-02-09T17:07:59.510Z,87.62
2019-02-09T17:11:20.861Z,87.63
2019-02-09T17:25:47.700Z,87.65
2019-02-09T17:44:45.091Z,87.68
